Time;durP1;ratioP1;P1;durP2;ratioP2;P2;SDS_P1;SDS_P2;PMS_P1;PMS_P2;Temp;Humidity;BMP_temperature;BMP_pressure;BME280_temperature;BME280_humidity;BME280_pressure;Samples;Min_cycle;Max_cycle;Signal;HPM_P1;HPM_P2
2022/09/12 00:02:22;;;;;;;4.00;3.40;;;;;;;;;;5041314;28;20197;-81
2022/09/12 00:04:48;;;;;;;5.47;3.83;;;10.70;99.90;;;;;;5038292;28;20183;-83
2022/09/12 00:07:14;;;;;;;4.17;3.43;;;10.90;99.90;;;;;;5037940;28;20181;-81
2022/09/12 00:09:40;;;;;;;5.93;4.00;;;10.80;99.90;;;;;;5040922;28;20189;-81
2022/09/12 00:12:07;;;;;;;6.60;3.87;;;11.00;99.90;;;;;;5037817;28;20718;-81
2022/09/12 00:14:33;;;;;;;5.80;3.80;;;10.80;99.90;;;;;;5041055;28;20511;-81
2022/09/12 00:16:59;;;;;;;3.83;3.43;;;10.50;99.90;;;;;;5040297;28;20509;-80
2022/09/12 00:19:26;;;;;;;4.47;3.33;;;10.60;99.90;;;;;;5040681;28;20177;-81
2022/09/12 00:21:52;;;;;;;3.60;3.30;;;10.60;99.90;;;;;;5039362;28;20205;-81
2022/09/12 00:24:18;;;;;;;3.80;3.17;;;;;;;;;;5039884;28;20170;-81
2022/09/12 00:26:43;;;;;;;6.83;3.17;;;10.60;99.90;;;;;;5039884;28;20174;-81
2022/09/12 00:29:19;;;;;;;3.53;3.23;;;10.50;99.90;;;;;;5038486;28;20181;-81
2022/09/12 00:31:45;;;;;;;4.20;3.10;;;10.50;99.90;;;;;;5041310;28;20727;-81
2022/09/12 00:34:12;;;;;;;3.07;2.77;;;10.40;99.90;;;;;;5041564;28;20256;-81
2022/09/12 00:36:39;;;;;;;2.77;2.30;;;10.50;99.90;;;;;;5038454;28;20174;-82
2022/09/12 00:39:05;;;;;;;5.83;3.40;;;10.50;99.90;;;;;;5040175;28;20636;-80
2022/09/12 00:41:34;;;;;;;3.23;2.93;;;10.50;99.90;;;;;;5040809;28;20591;-81
2022/09/12 00:44:20;;;;;;;2.83;2.53;;;10.40;99.90;;;;;;5039645;28;20698;-82
2022/09/12 05:40:06;;;;;;;3.07;2.03;;;8.80;99.90;;;;;;5137193;27;20280;-82
2022/09/12 05:42:32;;;;;;;4.53;2.73;;;8.90;99.90;;;;;;5127806;28;20198;-83
2022/09/12 05:44:58;;;;;;;3.70;2.20;;;8.90;99.90;;;;;;5133538;28;20230;-84
2022/09/12 05:47:23;;;;;;;4.13;2.57;;;9.00;99.90;;;;;;5135224;27;20173;-84
2022/09/12 05:49:51;;;;;;;2.40;2.20;;;9.10;99.90;;;;;;5134805;27;20177;-84
2022/09/12 05:52:17;;;;;;;2.67;2.47;;;9.10;99.90;;;;;;5137391;27;20246;-84
2022/09/12 05:54:43;;;;;;;2.50;2.30;;;;;;;;;;5132461;28;20677;-82
2022/09/12 05:57:08;;;;;;;7.77;2.77;;;9.20;99.90;;;;;;5135821;28;20170;-83
2022/09/12 05:59:34;;;;;;;3.50;2.40;;;9.20;99.90;;;;;;5134224;28;20558;-83
2022/09/12 06:02:00;;;;;;;9.90;2.77;;;9.30;99.90;;;;;;5135726;27;20190;-83
2022/09/12 06:04:26;;;;;;;4.23;2.43;;;9.30;99.90;;;;;;5137418;27;20174;-83
2022/09/12 06:06:52;;;;;;;2.57;2.37;;;9.40;99.90;;;;;;5136814;27;20220;-83
2022/09/12 06:09:18;;;;;;;6.13;2.40;;;9.40;99.90;;;;;;5134898;28;20179;-83
2022/09/12 06:11:45;;;;;;;3.73;2.03;;;9.50;99.90;;;;;;5135619;27;20194;-84
2022/09/12 06:14:12;;;;;;;2.43;2.00;;;9.50;99.90;;;;;;5132089;28;20659;-83
2022/09/12 06:16:38;;;;;;;3.87;1.80;;;9.60;99.90;;;;;;5134691;27;20250;-83
2022/09/12 06:19:07;;;;;;;3.80;1.93;;;9.70;99.90;;;;;;5132895;28;20194;-83
2022/09/12 06:31:45;;;;;;;1.30;1.20;;;10.20;99.90;;;;;;5136253;27;20287;-83
2022/09/12 06:34:14;;;;;;;3.13;1.50;;;10.30;99.90;;;;;;5135673;27;20623;-84
2022/09/12 06:36:45;;;;;;;2.03;1.80;;;10.40;99.90;;;;;;5135608;27;20224;-84
2022/09/12 06:39:13;;;;;;;2.20;1.73;;;10.40;99.90;;;;;;5134782;28;20208;-84
2022/09/12 06:41:39;;;;;;;1.30;1.20;;;10.60;99.90;;;;;;5134714;28;20198;-83
2022/09/12 06:44:05;;;;;;;1.70;1.37;;;10.60;99.90;;;;;;5136126;27;20257;-83
2022/09/12 06:53:35;;;;;;;2.30;1.10;;;10.80;99.90;;;;;;5136151;27;20271;-85
2022/09/12 06:56:04;;;;;;;1.73;1.23;;;10.90;99.90;;;;;;5117211;28;20190;-84
2022/09/12 06:58:30;;;;;;;1.43;1.07;;;10.90;99.90;;;;;;5116191;28;20171;-85
2022/09/12 07:01:04;;;;;;;1.70;1.27;;;11.00;99.90;;;;;;5116093;28;20201;-85
2022/09/12 07:03:31;;;;;;;1.30;1.20;;;11.00;99.90;;;;;;5135763;27;20181;-84
2022/09/12 07:06:02;;;;;;;4.20;1.40;;;11.10;99.90;;;;;;5135940;27;20189;-85
2022/09/12 07:13:44;;;;;;;1.47;1.23;;;11.30;99.90;;;;;;5138712;27;20681;-86
2022/09/12 07:16:11;;;;;;;2.60;1.03;;;11.40;99.90;;;;;;5135459;28;20210;-86
2022/09/12 07:18:38;;;;;;;1.73;1.23;;;11.60;99.90;;;;;;5137837;28;20576;-86
2022/09/12 07:21:06;;;;;;;3.47;1.00;;;11.70;99.90;;;;;;5136130;28;20178;-85
2022/09/12 07:23:31;;;;;;;3.20;1.40;;;11.70;99.90;;;;;;5136451;27;20171;-86
2022/09/12 07:25:59;;;;;;;1.00;0.90;;;11.90;99.90;;;;;;5135699;28;20281;-85
2022/09/12 07:28:26;;;;;;;2.17;1.10;;;12.00;99.90;;;;;;5133836;28;20175;-85
2022/09/12 07:30:52;;;;;;;1.60;1.00;;;12.20;99.90;;;;;;5134118;28;20250;-86
2022/09/12 07:33:20;;;;;;;1.83;1.20;;;12.30;99.90;;;;;;5136429;28;20209;-85
2022/09/12 07:35:46;;;;;;;3.23;1.03;;;12.40;99.90;;;;;;5135885;28;20167;-85
2022/09/12 07:38:12;;;;;;;2.70;1.70;;;12.50;99.90;;;;;;5135624;28;20567;-85
2022/09/12 07:40:37;;;;;;;1.67;1.30;;;12.70;99.90;;;;;;5136042;28;20179;-85
2022/09/12 07:43:03;;;;;;;2.03;1.10;;;12.80;99.90;;;;;;5133522;27;20203;-85
2022/09/12 07:45:29;;;;;;;1.10;0.90;;;;;;;;;;5132301;28;20183;-85
2022/09/12 07:47:55;;;;;;;3.73;0.90;;;13.20;99.90;;;;;;5131906;28;20299;-86
2022/09/12 07:50:21;;;;;;;1.13;0.80;;;;;;;;;;5132361;28;20640;-85
2022/09/12 07:52:47;;;;;;;2.90;0.90;;;13.70;99.90;;;;;;5132225;28;20213;-86
2022/09/12 07:55:13;;;;;;;0.87;0.83;;;14.00;99.90;;;;;;5132116;28;20179;-86
2022/09/12 07:57:39;;;;;;;2.13;0.67;;;14.30;99.90;;;;;;5132145;28;20183;-85
2022/09/12 08:00:07;;;;;;;0.93;0.80;;;14.60;99.90;;;;;;5133706;27;20258;-86
2022/09/12 08:02:33;;;;;;;1.17;0.80;;;15.00;99.90;;;;;;5131890;28;20209;-85
2022/09/12 08:04:59;;;;;;;0.70;0.70;;;15.20;99.90;;;;;;5133071;27;20167;-84
2022/09/12 08:07:25;;;;;;;0.70;0.70;;;;;;;;;;5132312;28;20657;-85
2022/09/12 08:09:52;;;;;;;0.70;0.67;;;15.70;99.90;;;;;;5134015;28;20183;-85
2022/09/12 08:12:19;;;;;;;1.33;0.60;;;16.40;99.90;;;;;;5135164;27;20210;-85
2022/09/12 08:14:45;;;;;;;1.03;0.90;;;;;;;;;;5139538;27;20219;-86
2022/09/12 08:17:11;;;;;;;2.17;0.60;;;;;;;;;;5132204;28;20176;-86
2022/09/12 08:19:37;;;;;;;1.77;0.80;;;17.80;99.90;;;;;;5131411;28;20180;-84
2022/09/12 08:22:04;;;;;;;2.47;0.43;;;18.00;99.90;;;;;;5130752;28;20200;-84
2022/09/12 08:24:31;;;;;;;3.23;0.60;;;;;;;;;;5121650;27;20200;-84
2022/09/12 08:26:57;;;;;;;0.63;0.60;;;;;;;;;;5118308;28;20188;-82
2022/09/12 08:29:23;;;;;;;2.50;0.70;;;;;;;;;;5118081;28;20254;-83
2022/09/12 08:31:48;;;;;;;1.87;0.70;;;20.10;99.90;;;;;;5116728;28;20302;-84
2022/09/12 08:34:15;;;;;;;2.13;0.80;;;20.30;99.90;;;;;;5119667;28;20180;-84
2022/09/12 08:36:41;;;;;;;0.90;0.80;;;20.90;99.90;;;;;;5119672;28;20637;-85
2022/09/12 08:39:07;;;;;;;0.73;0.53;;;;;;;;;;5117804;28;20182;-84
2022/09/12 08:41:45;;;;;;;3.43;0.80;;;21.40;99.90;;;;;;5118013;28;20633;-84
2022/09/12 08:44:23;;;;;;;1.57;0.90;;;21.50;99.90;;;;;;5118124;28;20182;-84
2022/09/12 08:47:07;;;;;;;1.10;0.70;;;21.80;99.90;;;;;;5119659;28;20172;-84
2022/09/12 08:49:38;;;;;;;0.83;0.80;;;21.80;99.90;;;;;;5119959;28;20562;-85
2022/09/12 08:52:19;;;;;;;0.83;0.63;;;21.70;99.90;;;;;;5118561;28;20215;-84
2022/09/12 08:54:45;;;;;;;2.40;0.83;;;21.70;99.90;;;;;;5118622;28;20524;-83
2022/09/12 08:57:14;;;;;;;1.70;0.90;;;21.80;99.90;;;;;;5118270;28;20179;-85
2022/09/12 08:59:44;;;;;;;0.60;0.60;;;21.90;99.90;;;;;;5119052;28;20216;-85
2022/09/12 09:02:48;;;;;;;1.13;0.90;;;22.00;99.90;;;;;;5118742;28;20199;-85
2022/09/12 09:05:37;;;;;;;0.60;0.60;;;22.00;99.90;;;;;;5095575;28;20222;-84
2022/09/12 09:08:34;;;;;;;0.67;0.60;;;22.20;99.90;;;;;;5119765;28;20545;-84
2022/09/12 09:11:12;;;;;;;1.23;0.70;;;22.40;99.90;;;;;;5119231;28;20166;-84
2022/09/12 09:17:00;;;;;;;1.00;0.60;;;22.50;99.90;;;;;;5125802;28;20547;-79
2022/09/12 09:19:46;;;;;;;1.00;0.80;;;22.40;99.90;;;;;;5127526;28;20182;-80
2022/09/12 09:22:43;;;;;;;0.93;0.70;;;22.60;99.90;;;;;;5129299;28;20218;-80
2022/09/12 09:25:23;;;;;;;3.80;1.00;;;22.60;99.90;;;;;;5126566;28;20238;-79
2022/09/12 09:28:00;;;;;;;1.30;0.60;;;22.70;99.90;;;;;;5130156;28;20178;-84
2022/09/12 09:30:27;;;;;;;6.37;0.70;;;23.00;99.90;;;;;;5129499;28;20176;-82
2022/09/12 09:33:05;;;;;;;2.77;0.80;;;23.10;99.90;;;;;;5119261;28;20710;-83
2022/09/12 09:35:36;;;;;;;1.83;0.80;;;23.20;99.90;;;;;;5120153;28;20595;-84
2022/09/12 09:38:38;;;;;;;2.63;0.77;;;23.30;99.90;;;;;;5121557;28;20175;-83
2022/09/12 09:41:24;;;;;;;1.03;0.70;;;23.40;99.90;;;;;;5121134;28;20171;-84
2022/09/12 09:43:49;;;;;;;1.77;0.90;;;23.50;99.90;;;;;;5119440;28;20190;-83
2022/09/12 09:46:15;;;;;;;2.20;0.87;;;23.60;99.90;;;;;;5118320;28;20172;-83
2022/09/12 09:48:44;;;;;;;3.50;0.80;;;23.70;99.90;;;;;;5115346;28;20649;-84
2022/09/12 09:51:12;;;;;;;1.97;1.20;;;23.80;99.90;;;;;;5116654;28;20195;-84
2022/09/12 09:54:00;;;;;;;1.50;0.70;;;23.80;99.90;;;;;;5116904;28;20212;-84
2022/09/12 09:56:41;;;;;;;1.83;0.70;;;24.00;99.90;;;;;;5117618;28;20176;-83
2022/09/12 09:59:26;;;;;;;1.20;0.87;;;24.00;99.90;;;;;;5115102;28;20194;-83
2022/09/12 10:02:02;;;;;;;1.87;0.80;;;23.80;99.90;;;;;;5115337;28;20199;-83
2022/09/12 10:04:38;;;;;;;1.20;0.70;;;23.80;99.90;;;;;;5115386;28;20661;-83
2022/09/12 10:07:05;;;;;;;1.20;0.80;;;24.00;99.90;;;;;;5115015;28;20196;-82
2022/09/12 10:09:33;;;;;;;1.23;0.90;;;24.30;99.90;;;;;;5116404;28;20251;-82
2022/09/12 10:12:18;;;;;;;0.97;0.87;;;24.70;99.90;;;;;;5116220;28;20218;-83
2022/09/12 10:15:02;;;;;;;0.90;0.90;;;24.70;99.90;;;;;;5115793;28;20705;-83
2022/09/12 10:17:41;;;;;;;5.77;0.90;;;24.60;99.90;;;;;;5115617;28;20186;-83
2022/09/12 10:20:29;;;;;;;2.20;0.70;;;24.60;99.90;;;;;;5114804;28;20254;-83
2022/09/12 10:22:57;;;;;;;0.73;0.73;;;24.20;99.90;;;;;;5114610;28;20203;-82
2022/09/12 10:25:24;;;;;;;1.07;0.73;;;24.60;99.90;;;;;;5114659;28;20221;-82
2022/09/12 10:27:57;;;;;;;2.77;0.93;;;24.60;99.90;;;;;;5115208;28;20241;-82
2022/09/12 10:30:24;;;;;;;1.33;0.83;;;24.70;99.90;;;;;;5116767;28;20682;-85
2022/09/12 10:32:50;;;;;;;0.80;0.80;;;25.10;99.90;;;;;;5115826;28;20193;-85
2022/09/12 10:35:20;;;;;;;0.90;0.70;;;25.40;99.90;;;;;;5114710;28;20177;-83
2022/09/12 10:38:03;;;;;;;0.70;0.70;;;25.50;99.90;;;;;;5118390;28;20182;-85
2022/09/12 10:40:41;;;;;;;1.27;0.90;;;25.70;99.90;;;;;;5120540;28;20157;-84
2022/09/12 10:43:25;;;;;;;1.00;0.90;;;25.90;99.90;;;;;;5119252;28;20571;-86
2022/09/12 10:45:55;;;;;;;0.87;0.63;;;25.40;99.90;;;;;;5119195;28;20161;-82
2022/09/12 10:48:29;;;;;;;1.53;0.93;;;25.00;99.90;;;;;;5119424;28;20171;-83
2022/09/12 10:50:58;;;;;;;1.03;0.73;;;25.50;99.90;;;;;;5119418;28;20156;-84
2022/09/12 10:53:26;;;;;;;1.50;1.07;;;25.40;99.90;;;;;;5119928;28;20645;-83
2022/09/12 10:56:11;;;;;;;3.37;0.73;;;25.10;99.90;;;;;;5120244;28;20168;-85
2022/09/12 10:58:59;;;;;;;3.00;1.00;;;26.50;99.90;;;;;;5119181;28;20228;-83
2022/09/12 11:01:43;;;;;;;4.00;0.83;;;26.30;99.90;;;;;;5117242;28;20202;-83
2022/09/12 11:04:29;;;;;;;0.90;0.90;;;26.50;99.90;;;;;;5118897;28;20163;-84
2022/09/12 11:06:59;;;;;;;1.83;0.80;;;26.60;99.90;;;;;;5120654;28;20157;-84
2022/09/12 11:09:37;;;;;;;0.83;0.70;;;26.80;99.90;;;;;;5121782;28;20169;-84
2022/09/12 11:12:17;;;;;;;0.73;0.73;;;26.80;99.90;;;;;;5123102;28;20674;-84
2022/09/12 11:15:06;;;;;;;1.23;0.80;;;27.10;99.90;;;;;;5119967;28;20265;-85
2022/09/12 11:17:35;;;;;;;0.90;0.80;;;;;;;;;;5118430;28;20170;-81
2022/09/12 11:20:20;;;;;;;0.67;0.67;;;27.50;99.90;;;;;;5118872;28;20182;-84
2022/09/12 11:23:13;;;;;;;0.70;0.70;;;27.50;99.90;;;;;;5119242;28;20300;-84
2022/09/12 11:26:01;;;;;;;1.07;0.87;;;27.60;99.90;;;;;;5118227;28;20628;-84
2022/09/12 11:28:44;;;;;;;1.80;1.00;;;27.80;99.90;;;;;;5119803;28;20163;-84
2022/09/12 11:31:28;;;;;;;1.53;0.93;;;27.90;99.90;;;;;;5118504;28;20222;-85
2022/09/12 11:33:56;;;;;;;3.03;0.90;;;27.90;99.90;;;;;;5118328;28;20174;-84
2022/09/12 11:36:53;;;;;;;1.10;0.70;;;27.80;99.90;;;;;;5118386;28;20521;-84
2022/09/12 11:39:37;;;;;;;1.13;0.90;;;26.90;99.90;;;;;;5120097;28;20162;-86
2022/09/12 11:42:05;;;;;;;1.00;0.90;;;27.30;99.90;;;;;;5118396;28;20214;-85
2022/09/12 11:44:46;;;;;;;1.57;1.10;;;27.70;99.90;;;;;;5119056;28;20247;-85
2022/09/12 11:47:13;;;;;;;1.50;0.77;;;28.10;99.90;;;;;;5118962;28;20530;-84
2022/09/12 11:49:39;;;;;;;0.90;0.90;;;;;;;;;;5119378;28;20178;-86
2022/09/12 11:52:18;;;;;;;0.80;0.70;;;27.50;99.90;;;;;;5120559;28;20224;-85
2022/09/12 11:55:16;;;;;;;1.43;0.90;;;27.80;99.90;;;;;;5118707;28;20642;-80
2022/09/12 11:57:54;;;;;;;2.03;0.90;;;27.30;99.60;;;;;;5120655;28;20164;-86
2022/09/12 12:00:35;;;;;;;2.40;0.80;;;27.70;99.50;;;;;;5123156;28;20168;-85
2022/09/12 12:03:15;;;;;;;0.50;0.50;;;28.80;99.70;;;;;;5124534;28;20256;-84
2022/09/12 12:05:52;;;;;;;2.53;0.90;;;28.80;99.80;;;;;;5123660;28;20164;-84
2022/09/12 12:08:22;;;;;;;0.83;0.70;;;28.90;94.80;;;;;;5122085;28;20200;-84
2022/09/12 12:10:48;;;;;;;0.80;0.80;;;;;;;;;;5121100;28;20172;-84
2022/09/12 12:13:14;;;;;;;0.70;0.70;;;28.70;92.80;;;;;;5121511;28;20221;-85
2022/09/12 12:15:47;;;;;;;2.37;0.80;;;28.50;97.00;;;;;;5125887;28;20172;-86
2022/09/12 12:18:25;;;;;;;0.73;0.63;;;28.00;93.50;;;;;;5121911;28;20174;-83
2022/09/12 12:20:53;;;;;;;1.30;0.70;;;28.00;93.40;;;;;;5120733;28;20656;-84
2022/09/12 12:23:33;;;;;;;2.50;0.70;;;28.00;94.20;;;;;;5118915;28;20214;-85
2022/09/12 12:26:00;;;;;;;0.77;0.77;;;28.00;93.00;;;;;;5120603;28;20202;-83
2022/09/12 12:28:41;;;;;;;0.73;0.73;;;27.90;97.10;;;;;;5119935;28;20182;-83
2022/09/12 12:31:08;;;;;;;4.10;0.80;;;28.10;93.70;;;;;;5120848;28;20556;-84
2022/09/12 12:33:37;;;;;;;5.73;0.80;;;28.10;95.70;;;;;;5121154;28;20222;-84
2022/09/12 12:36:06;;;;;;;0.60;0.60;;;28.40;90.60;;;;;;5121193;28;20224;-83
2022/09/12 12:38:37;;;;;;;1.00;0.70;;;28.30;96.00;;;;;;5120868;28;20258;-85
2022/09/12 12:41:18;;;;;;;4.73;0.90;;;28.50;91.30;;;;;;5119066;28;20661;-84
2022/09/12 12:43:48;;;;;;;5.03;0.83;;;28.50;90.80;;;;;;5120481;28;20317;-86
2022/09/12 12:46:16;;;;;;;1.33;0.60;;;28.60;91.80;;;;;;5120292;27;20195;-83
2022/09/12 12:48:53;;;;;;;1.47;0.80;;;28.30;94.10;;;;;;5121157;28;20181;-85
2022/09/12 12:51:43;;;;;;;2.70;1.10;;;28.30;92.00;;;;;;5119073;28;20658;-84
2022/09/12 12:54:29;;;;;;;0.87;0.80;;;27.90;90.30;;;;;;5119488;28;20211;-85
2022/09/12 12:57:16;;;;;;;1.23;1.00;;;27.50;97.00;;;;;;5120645;28;20178;-84
2022/09/12 12:59:59;;;;;;;2.40;1.00;;;28.00;94.40;;;;;;5120673;28;20164;-85
2022/09/12 13:02:50;;;;;;;2.63;1.00;;;28.40;89.10;;;;;;5130482;28;20218;-82
2022/09/12 13:05:23;;;;;;;1.53;0.90;;;28.40;86.50;;;;;;5119818;28;20175;-83
2022/09/12 13:07:58;;;;;;;2.40;0.83;;;28.30;92.10;;;;;;5140637;28;20191;-80
2022/09/12 13:10:28;;;;;;;1.50;1.10;;;28.60;91.00;;;;;;5129975;28;20165;-82
2022/09/12 13:12:56;;;;;;;0.83;0.83;;;28.90;88.80;;;;;;5128750;28;20750;-84
2022/09/12 13:15:37;;;;;;;1.17;0.90;;;28.80;88.90;;;;;;5119199;28;20172;-82
2022/09/12 13:18:46;;;;;;;1.10;0.90;;;28.90;91.20;;;;;;5117393;28;20194;-85
2022/09/12 13:21:13;;;;;;;2.73;1.20;;;28.90;88.30;;;;;;5085410;28;20237;-83
2022/09/12 13:23:40;;;;;;;2.60;0.70;;;28.80;86.10;;;;;;5118671;28;20248;-82
2022/09/12 13:26:20;;;;;;;1.07;0.97;;;28.60;92.10;;;;;;5118698;28;20165;-83
2022/09/12 13:28:46;;;;;;;0.80;0.80;;;29.20;92.30;;;;;;5119361;28;20180;-83
2022/09/12 13:31:28;;;;;;;1.27;1.17;;;29.60;92.50;;;;;;5119695;28;20574;-83
2022/09/12 13:34:01;;;;;;;1.50;1.10;;;29.60;87.50;;;;;;5119960;28;20201;-83
2022/09/12 13:36:39;;;;;;;1.00;0.90;;;29.30;83.90;;;;;;5118264;28;20183;-84
2022/09/12 13:39:16;;;;;;;2.20;1.00;;;29.00;90.50;;;;;;5120016;28;20169;-82
2022/09/12 13:41:47;;;;;;;1.10;0.93;;;28.70;90.40;;;;;;5118557;28;20602;-82
2022/09/12 13:44:17;;;;;;;2.47;1.30;;;29.00;86.70;;;;;;5118570;28;20179;-82
2022/09/12 13:46:43;;;;;;;1.00;0.90;;;28.80;90.70;;;;;;5120225;28;20168;-82
2022/09/12 13:49:30;;;;;;;1.13;1.00;;;28.80;89.90;;;;;;5120412;28;20222;-84
2022/09/12 13:52:02;;;;;;;1.00;0.80;;;29.00;88.80;;;;;;5120744;28;20200;-81
2022/09/12 13:54:29;;;;;;;0.77;0.77;;;28.70;85.60;;;;;;5121250;28;20225;-80
2022/09/12 13:56:55;;;;;;;1.47;1.00;;;28.60;87.10;;;;;;5120286;28;20188;-83
2022/09/12 13:59:21;;;;;;;1.63;1.53;;;28.70;89.20;;;;;;5116126;28;20639;-83
2022/09/12 14:01:47;;;;;;;1.27;1.10;;;28.80;81.10;;;;;;5117339;28;20229;-83
2022/09/12 14:07:19;;;;;;;1.30;1.20;;;28.20;90.10;;;;;;5118874;28;20171;-83
2022/09/12 14:09:52;;;;;;;0.90;0.90;;;27.60;81.60;;;;;;5116563;28;20258;-82
2022/09/12 14:12:24;;;;;;;1.53;0.80;;;27.20;90.30;;;;;;5118086;28;20256;-84
2022/09/12 14:14:51;;;;;;;0.60;0.60;;;27.30;84.20;;;;;;5118325;28;20207;-83
2022/09/12 14:17:22;;;;;;;1.37;0.80;;;27.20;88.60;;;;;;5116370;28;20272;-82
2022/09/12 14:19:48;;;;;;;0.60;0.60;;;28.20;86.40;;;;;;5117719;28;20608;-83
2022/09/12 14:22:16;;;;;;;1.97;1.20;;;28.60;88.70;;;;;;5117932;28;20207;-84
2022/09/12 14:24:46;;;;;;;2.87;0.93;;;;;;;;;;5119085;28;20179;-84
2022/09/12 14:27:14;;;;;;;2.73;0.70;;;28.30;87.80;;;;;;5117892;28;20162;-85
2022/09/12 14:29:42;;;;;;;0.90;0.80;;;28.40;87.20;;;;;;5119239;28;20667;-84
2022/09/12 14:32:20;;;;;;;2.60;0.90;;;28.30;85.30;;;;;;5131297;28;20550;-82
2022/09/12 14:35:05;;;;;;;0.90;0.80;;;28.30;88.10;;;;;;5116544;28;20645;-83
2022/09/12 14:37:31;;;;;;;1.10;0.77;;;28.30;80.70;;;;;;5117225;28;20186;-85
2022/09/12 14:39:57;;;;;;;1.70;0.87;;;28.10;87.50;;;;;;5116014;28;20189;-84
2022/09/12 14:42:28;;;;;;;0.93;0.80;;;28.80;83.90;;;;;;5116246;28;20217;-82
2022/09/12 14:45:14;;;;;;;2.27;1.10;;;29.00;81.30;;;;;;5117376;28;20237;-84
2022/09/12 14:47:43;;;;;;;2.33;0.90;;;28.90;78.80;;;;;;5117689;28;20158;-82
2022/09/12 14:50:16;;;;;;;0.67;0.67;;;28.70;84.00;;;;;;5116623;28;20171;-82
2022/09/12 14:52:42;;;;;;;0.70;0.70;;;28.40;85.30;;;;;;5117480;28;20192;-83
2022/09/12 14:55:14;;;;;;;0.80;0.80;;;28.70;83.80;;;;;;5115926;28;20656;-84
2022/09/12 14:57:43;;;;;;;1.90;0.83;;;;;;;;;;5115480;28;20180;-82
2022/09/12 15:00:19;;;;;;;1.20;0.87;;;28.00;89.30;;;;;;5117926;28;20205;-84
2022/09/12 15:02:46;;;;;;;1.83;0.90;;;28.20;81.50;;;;;;5117310;28;20241;-83
2022/09/12 15:05:12;;;;;;;0.80;0.80;;;;;;;;;;5119982;28;20243;-83
2022/09/12 15:07:41;;;;;;;3.83;1.10;;;27.80;85.70;;;;;;5118084;28;20217;-84
2022/09/12 15:10:25;;;;;;;1.73;0.73;;;26.80;84.20;;;;;;5117256;28;20178;-82
2022/09/12 15:13:27;;;;;;;0.70;0.70;;;26.70;83.80;;;;;;5115562;28;20694;-83
2022/09/12 15:15:58;;;;;;;1.40;1.00;;;26.60;89.90;;;;;;5084040;28;20251;-82
2022/09/12 15:18:26;;;;;;;1.10;1.00;;;26.30;84.60;;;;;;5116448;28;20177;-85
2022/09/12 15:21:02;;;;;;;3.60;1.20;;;25.70;84.90;;;;;;5116673;28;20257;-81
2022/09/12 15:23:47;;;;;;;0.80;0.70;;;25.70;86.80;;;;;;5118099;28;20195;-82
2022/09/12 15:26:21;;;;;;;1.07;0.80;;;25.00;87.70;;;;;;5116487;28;20528;-83
2022/09/12 15:28:48;;;;;;;1.00;0.70;;;24.50;87.90;;;;;;5117063;28;20163;-83
2022/09/12 15:31:26;;;;;;;1.13;0.80;;;24.50;90.60;;;;;;5116144;28;20199;-84
2022/09/12 15:33:53;;;;;;;0.73;0.73;;;24.40;90.80;;;;;;5118734;28;20243;-83
2022/09/12 15:36:21;;;;;;;1.10;0.90;;;23.80;90.30;;;;;;5119817;28;20183;-82
2022/09/12 15:38:48;;;;;;;1.20;0.60;;;23.40;93.00;;;;;;5119417;28;20683;-84
2022/09/12 15:41:16;;;;;;;0.60;0.50;;;23.00;94.00;;;;;;5118830;28;20214;-83
2022/09/12 15:43:41;;;;;;;0.90;0.70;;;22.70;93.00;;;;;;5120370;28;20670;-83
2022/09/12 15:46:10;;;;;;;1.40;0.80;;;22.30;93.50;;;;;;5118964;28;20182;-82
2022/09/12 15:48:36;;;;;;;1.27;0.60;;;22.00;94.20;;;;;;5120603;27;20575;-82
2022/09/12 15:51:03;;;;;;;2.80;0.83;;;21.50;95.40;;;;;;5120011;28;20178;-82
2022/09/12 15:53:29;;;;;;;0.70;0.70;;;21.50;96.10;;;;;;5119725;28;20245;-82
2022/09/12 15:55:55;;;;;;;1.03;0.80;;;21.30;94.90;;;;;;5120220;28;20635;-80
2022/09/12 15:58:21;;;;;;;2.63;0.80;;;;;;;;;;5119715;28;20217;-84
2022/09/12 16:00:47;;;;;;;0.83;0.83;;;;;;;;;;5120971;28;20207;-82
2022/09/12 16:03:26;;;;;;;1.60;0.80;;;20.90;95.20;;;;;;5119546;28;20288;-84
2022/09/12 16:06:00;;;;;;;1.57;0.90;;;20.70;96.70;;;;;;5119520;28;20168;-83
2022/09/12 16:08:28;;;;;;;2.27;1.00;;;20.60;95.90;;;;;;5120789;28;20197;-83
2022/09/12 16:10:56;;;;;;;1.93;1.27;;;20.50;99.70;;;;;;5119465;28;20205;-83
2022/09/12 16:13:23;;;;;;;4.37;1.00;;;20.50;99.80;;;;;;5120077;28;20216;-83
2022/09/12 16:15:49;;;;;;;7.20;1.23;;;20.40;99.90;;;;;;5121509;28;20217;-83
2022/09/12 16:18:15;;;;;;;1.67;0.97;;;20.30;97.40;;;;;;5118861;28;20179;-82
2022/09/12 16:20:41;;;;;;;1.07;0.97;;;;;;;;;;5120211;28;20193;-82
2022/09/12 16:23:10;;;;;;;1.90;1.03;;;20.10;97.10;;;;;;5119001;28;20258;-82
2022/09/12 16:25:37;;;;;;;1.13;1.03;;;;;;;;;;5120633;28;20175;-87
2022/09/12 16:28:04;;;;;;;1.17;1.00;;;;;;;;;;5120679;27;20534;-84
2022/09/12 16:30:31;;;;;;;1.07;0.90;;;20.00;98.40;;;;;;5119501;28;20186;-83
2022/09/12 16:32:57;;;;;;;1.10;1.00;;;;;;;;;;5121062;28;20656;-84
2022/09/12 16:35:23;;;;;;;1.20;1.10;;;;;;;;;;5119787;28;20187;-83
2022/09/12 16:37:49;;;;;;;1.63;1.10;;;;;;;;;;5121403;28;20211;-85
2022/09/12 16:40:18;;;;;;;2.10;1.00;;;19.80;99.90;;;;;;5137189;28;20175;-79
2022/09/12 16:42:44;;;;;;;1.20;1.10;;;;;;;;;;5134038;28;20207;-79
2022/09/12 16:45:10;;;;;;;1.57;0.90;;;19.50;99.90;;;;;;5135479;28;20198;-79
2022/09/12 16:47:36;;;;;;;1.20;1.07;;;;;;;;;;5135522;28;20168;-82
2022/09/12 16:50:03;;;;;;;1.83;0.80;;;19.60;99.90;;;;;;5137072;28;20247;-79
2022/09/12 16:52:30;;;;;;;1.27;1.07;;;;;;;;;;5130716;28;20256;-82
2022/09/12 16:54:56;;;;;;;1.00;0.90;;;19.40;99.90;;;;;;5120151;28;20628;-82
2022/09/12 16:57:22;;;;;;;1.90;1.10;;;19.40;99.90;;;;;;5119269;28;20621;-83
2022/09/12 16:59:48;;;;;;;1.20;1.00;;;19.10;99.90;;;;;;5120066;28;20186;-83
2022/09/12 17:02:14;;;;;;;1.20;1.10;;;19.10;99.90;;;;;;5122694;28;20589;-84
2022/09/12 17:04:40;;;;;;;3.73;1.20;;;18.90;99.90;;;;;;5124601;28;20167;-83
2022/09/12 17:07:06;;;;;;;1.10;0.97;;;18.90;99.90;;;;;;5123014;28;20200;-84
2022/09/12 17:09:32;;;;;;;1.73;1.17;;;18.80;99.90;;;;;;5124675;28;20177;-84
2022/09/12 17:11:59;;;;;;;2.63;1.20;;;18.70;99.90;;;;;;5130485;28;20218;-83
2022/09/12 17:14:25;;;;;;;2.03;1.00;;;18.60;99.90;;;;;;5123737;28;20183;-80
2022/09/12 17:16:51;;;;;;;1.80;1.03;;;18.60;99.90;;;;;;5122114;28;20228;-82
2022/09/12 17:19:20;;;;;;;1.77;1.50;;;18.50;99.90;;;;;;5122255;28;20228;-82
2022/09/12 17:21:47;;;;;;;2.63;1.20;;;18.40;99.90;;;;;;5122182;28;20741;-83
2022/09/12 17:24:14;;;;;;;2.53;1.40;;;18.40;99.90;;;;;;5121378;28;20179;-83
2022/09/12 17:26:39;;;;;;;3.57;1.20;;;18.30;99.90;;;;;;5121065;28;20168;-83
2022/09/12 17:29:06;;;;;;;2.93;1.37;;;;;;;;;;5121409;28;20174;-83
2022/09/12 17:31:32;;;;;;;4.77;1.50;;;;;;;;;;5121829;28;20658;-83
2022/09/12 17:33:59;;;;;;;1.63;1.27;;;17.90;99.90;;;;;;5119800;28;20188;-82
2022/09/12 17:36:26;;;;;;;3.17;1.30;;;17.90;99.90;;;;;;5120662;28;20262;-84
2022/09/12 17:38:53;;;;;;;2.23;1.60;;;17.70;99.90;;;;;;5121260;28;20186;-81
2022/09/12 17:41:21;;;;;;;2.60;1.60;;;17.50;99.90;;;;;;5120658;28;20199;-84
2022/09/12 17:43:50;;;;;;;2.87;1.70;;;17.50;99.90;;;;;;5122605;28;20223;-83
2022/09/12 17:46:19;;;;;;;2.67;1.60;;;17.30;99.90;;;;;;5121581;28;20183;-83
2022/09/12 17:48:51;;;;;;;2.27;1.50;;;17.30;99.90;;;;;;5121929;28;20179;-84
2022/09/12 17:51:17;;;;;;;3.87;1.57;;;17.10;99.90;;;;;;5123270;28;20187;-84
2022/09/12 17:53:43;;;;;;;6.37;1.70;;;;;;;;;;5122670;28;20201;-82
2022/09/12 17:56:10;;;;;;;3.63;1.77;;;17.00;99.90;;;;;;5123114;28;20186;-82
2022/09/12 17:58:36;;;;;;;2.47;1.97;;;17.00;99.90;;;;;;5121082;28;20186;-83
2022/09/12 18:03:50;;;;;;;2.40;2.20;;;16.80;99.90;;;;;;5120755;28;20249;-82
2022/09/12 18:06:16;;;;;;;4.37;2.13;;;16.70;99.90;;;;;;5120004;28;20182;-83
2022/09/12 18:08:42;;;;;;;4.20;1.90;;;16.60;99.90;;;;;;5120026;28;20175;-83
2022/09/12 18:11:07;;;;;;;2.80;2.37;;;16.50;99.90;;;;;;5120282;28;20171;-84
2022/09/12 18:13:34;;;;;;;12.77;9.43;;;16.50;99.90;;;;;;5118904;28;20197;-82
2022/09/12 18:16:08;;;;;;;14.60;9.60;;;16.50;99.90;;;;;;5119200;28;20227;-82
2022/09/12 18:18:35;;;;;;;10.53;7.60;;;16.40;99.90;;;;;;5119688;28;20669;-81
2022/09/12 18:21:04;;;;;;;9.27;5.53;;;16.30;99.90;;;;;;5120666;28;20175;-83
2022/09/12 18:23:30;;;;;;;7.17;5.20;;;16.30;99.90;;;;;;5119118;28;20274;-85
2022/09/12 18:26:02;;;;;;;7.33;4.53;;;16.30;99.90;;;;;;5119694;28;20187;-84
2022/09/12 18:28:28;;;;;;;5.63;4.27;;;;;;;;;;5119435;28;20171;-84
2022/09/12 18:30:54;;;;;;;6.63;4.67;;;16.00;99.90;;;;;;5121513;28;20179;-85
2022/09/12 18:33:20;;;;;;;12.13;4.83;;;16.10;99.90;;;;;;5120523;28;20561;-84
2022/09/12 18:35:45;;;;;;;9.77;4.90;;;16.00;99.90;;;;;;5119187;28;20180;-83
2022/09/12 18:38:11;;;;;;;8.27;5.43;;;15.90;99.90;;;;;;5120697;28;20514;-84
2022/09/12 18:40:37;;;;;;;11.20;5.63;;;15.90;99.90;;;;;;5120772;28;20195;-85
2022/09/12 18:43:03;;;;;;;9.63;5.73;;;15.80;99.90;;;;;;5120037;28;20210;-85
2022/09/12 18:45:28;;;;;;;6.63;5.30;;;15.80;99.90;;;;;;5119388;28;20195;-84